sensor_id;sensor_type;location;lat;lon;timestamp;P1;P2;P0
42410;PMS5003;28056;51.112;0.984;2022-08-19T00:04:52;9;9;
42410;PMS5003;28056;51.112;0.984;2022-08-19T00:07:20;9;9;
42410;PMS5003;28056;51.112;0.984;2022-08-19T00:09:48;14;10;
42410;PMS5003;28056;51.112;0.984;2022-08-19T00:12:15;6;6;
42410;PMS5003;28056;51.112;0.984;2022-08-19T00:14:43;11;11;
42410;PMS5003;28056;51.112;0.984;2022-08-19T00:17:10;10;10;
42410;PMS5003;28056;51.112;0.984;2022-08-19T00:19:37;9;9;
42410;PMS5003;28056;51.112;0.984;2022-08-19T00:22:05;13;11;
42410;PMS5003;28056;51.112;0.984;2022-08-19T00:24:33;8;8;
42410;PMS5003;28056;51.112;0.984;2022-08-19T00:27:00;10;7;
42410;PMS5003;28056;51.112;0.984;2022-08-19T00:29:28;11;10;
42410;PMS5003;28056;51.112;0.984;2022-08-19T00:31:56;8;8;
42410;PMS5003;28056;51.112;0.984;2022-08-19T00:34:24;10;9;
42410;PMS5003;28056;51.112;0.984;2022-08-19T00:36:52;7;7;
42410;PMS5003;28056;51.112;0.984;2022-08-19T00:39:19;9;8;
42410;PMS5003;28056;51.112;0.984;2022-08-19T00:41:48;12;10;
42410;PMS5003;28056;51.112;0.984;2022-08-19T00:44:17;10;10;
42410;PMS5003;28056;51.112;0.984;2022-08-19T00:46:48;8;8;
42410;PMS5003;28056;51.112;0.984;2022-08-19T00:49:17;7;7;
42410;PMS5003;28056;51.112;0.984;2022-08-19T00:51:50;7;7;
42410;PMS5003;28056;51.112;0.984;2022-08-19T00:54:20;9;9;
42410;PMS5003;28056;51.112;0.984;2022-08-19T00:56:47;8;7;
42410;PMS5003;28056;51.112;0.984;2022-08-19T00:59:16;7;7;
42410;PMS5003;28056;51.112;0.984;2022-08-19T01:01:45;8;7;
42410;PMS5003;28056;51.112;0.984;2022-08-19T01:04:13;6;6;
42410;PMS5003;28056;51.112;0.984;2022-08-19T01:06:41;6;6;
42410;PMS5003;28056;51.112;0.984;2022-08-19T01:09:09;6;6;
42410;PMS5003;28056;51.112;0.984;2022-08-19T01:11:37;8;8;
42410;PMS5003;28056;51.112;0.984;2022-08-19T01:14:08;10;9;
42410;PMS5003;28056;51.112;0.984;2022-08-19T01:16:36;8;8;
42410;PMS5003;28056;51.112;0.984;2022-08-19T01:19:09;5;5;
42410;PMS5003;28056;51.112;0.984;2022-08-19T01:21:43;7;6;
42410;PMS5003;28056;51.112;0.984;2022-08-19T01:24:18;7;7;
42410;PMS5003;28056;51.112;0.984;2022-08-19T01:26:45;5;5;
42410;PMS5003;28056;51.112;0.984;2022-08-19T01:29:14;13;11;
42410;PMS5003;28056;51.112;0.984;2022-08-19T01:31:41;10;8;
42410;PMS5003;28056;51.112;0.984;2022-08-19T01:34:09;8;8;
42410;PMS5003;28056;51.112;0.984;2022-08-19T01:36:37;8;7;
42410;PMS5003;28056;51.112;0.984;2022-08-19T01:39:10;10;8;
42410;PMS5003;28056;51.112;0.984;2022-08-19T01:41:39;7;7;
42410;PMS5003;28056;51.112;0.984;2022-08-19T01:44:07;13;12;
42410;PMS5003;28056;51.112;0.984;2022-08-19T01:46:35;12;9;
42410;PMS5003;28056;51.112;0.984;2022-08-19T01:49:03;8;7;
42410;PMS5003;28056;51.112;0.984;2022-08-19T01:51:32;8;8;
42410;PMS5003;28056;51.112;0.984;2022-08-19T01:54:00;9;7;
42410;PMS5003;28056;51.112;0.984;2022-08-19T01:56:27;10;6;
42410;PMS5003;28056;51.112;0.984;2022-08-19T01:58:56;9;7;
42410;PMS5003;28056;51.112;0.984;2022-08-19T02:01:28;8;6;
42410;PMS5003;28056;51.112;0.984;2022-08-19T02:03:55;7;7;
42410;PMS5003;28056;51.112;0.984;2022-08-19T02:06:23;9;8;
42410;PMS5003;28056;51.112;0.984;2022-08-19T02:08:51;13;9;
42410;PMS5003;28056;51.112;0.984;2022-08-19T02:11:19;11;9;
42410;PMS5003;28056;51.112;0.984;2022-08-19T02:13:48;8;8;
42410;PMS5003;28056;51.112;0.984;2022-08-19T02:16:16;8;8;
42410;PMS5003;28056;51.112;0.984;2022-08-19T02:18:44;8;7;
42410;PMS5003;28056;51.112;0.984;2022-08-19T02:21:11;6;6;
42410;PMS5003;28056;51.112;0.984;2022-08-19T02:23:39;7;7;
42410;PMS5003;28056;51.112;0.984;2022-08-19T02:26:07;8;7;
42410;PMS5003;28056;51.112;0.984;2022-08-19T02:28:35;8;6;
42410;PMS5003;28056;51.112;0.984;2022-08-19T02:31:03;11;9;
42410;PMS5003;28056;51.112;0.984;2022-08-19T02:33:35;9;9;
42410;PMS5003;28056;51.112;0.984;2022-08-19T02:36:03;13;11;
42410;PMS5003;28056;51.112;0.984;2022-08-19T02:38:52;13;9;
42410;PMS5003;28056;51.112;0.984;2022-08-19T02:41:21;16;10;
42410;PMS5003;28056;51.112;0.984;2022-08-19T02:43:50;12;12;
42410;PMS5003;28056;51.112;0.984;2022-08-19T02:46:18;14;13;
42410;PMS5003;28056;51.112;0.984;2022-08-19T02:48:48;10;10;
42410;PMS5003;28056;51.112;0.984;2022-08-19T02:51:17;14;13;
42410;PMS5003;28056;51.112;0.984;2022-08-19T02:53:46;8;7;
42410;PMS5003;28056;51.112;0.984;2022-08-19T02:56:14;8;8;
42410;PMS5003;28056;51.112;0.984;2022-08-19T02:58:41;14;9;
42410;PMS5003;28056;51.112;0.984;2022-08-19T03:01:09;10;7;
42410;PMS5003;28056;51.112;0.984;2022-08-19T03:03:36;8;8;
42410;PMS5003;28056;51.112;0.984;2022-08-19T03:06:04;6;5;
42410;PMS5003;28056;51.112;0.984;2022-08-19T03:08:33;10;9;
42410;PMS5003;28056;51.112;0.984;2022-08-19T03:11:00;8;6;
42410;PMS5003;28056;51.112;0.984;2022-08-19T03:13:28;10;8;
42410;PMS5003;28056;51.112;0.984;2022-08-19T03:15:55;7;7;
42410;PMS5003;28056;51.112;0.984;2022-08-19T03:18:23;9;7;
42410;PMS5003;28056;51.112;0.984;2022-08-19T03:24:06;7;6;
42410;PMS5003;28056;51.112;0.984;2022-08-19T03:26:38;6;6;
42410;PMS5003;28056;51.112;0.984;2022-08-19T03:29:06;11;8;
42410;PMS5003;28056;51.112;0.984;2022-08-19T03:31:34;7;7;
42410;PMS5003;28056;51.112;0.984;2022-08-19T03:34:02;8;6;
42410;PMS5003;28056;51.112;0.984;2022-08-19T03:36:30;6;6;
42410;PMS5003;28056;51.112;0.984;2022-08-19T03:39:01;7;7;
42410;PMS5003;28056;51.112;0.984;2022-08-19T03:41:30;6;6;
42410;PMS5003;28056;51.112;0.984;2022-08-19T03:43:59;5;5;
42410;PMS5003;28056;51.112;0.984;2022-08-19T03:46:28;8;6;
42410;PMS5003;28056;51.112;0.984;2022-08-19T03:48:57;6;6;
42410;PMS5003;28056;51.112;0.984;2022-08-19T03:51:28;8;6;
42410;PMS5003;28056;51.112;0.984;2022-08-19T03:53:58;5;5;
42410;PMS5003;28056;51.112;0.984;2022-08-19T03:56:27;7;5;
42410;PMS5003;28056;51.112;0.984;2022-08-19T03:58:55;4;4;
42410;PMS5003;28056;51.112;0.984;2022-08-19T04:01:25;8;4;
42410;PMS5003;28056;51.112;0.984;2022-08-19T04:03:55;6;5;
42410;PMS5003;28056;51.112;0.984;2022-08-19T04:06:25;4;4;
42410;PMS5003;28056;51.112;0.984;2022-08-19T04:08:54;7;6;
42410;PMS5003;28056;51.112;0.984;2022-08-19T04:11:23;3;3;
42410;PMS5003;28056;51.112;0.984;2022-08-19T04:13:53;5;5;
42410;PMS5003;28056;51.112;0.984;2022-08-19T04:16:22;5;5;
42410;PMS5003;28056;51.112;0.984;2022-08-19T04:18:52;5;5;
42410;PMS5003;28056;51.112;0.984;2022-08-19T04:21:20;5;5;
42410;PMS5003;28056;51.112;0.984;2022-08-19T04:23:49;4;4;
42410;PMS5003;28056;51.112;0.984;2022-08-19T04:26:18;6;4;
42410;PMS5003;28056;51.112;0.984;2022-08-19T04:28:47;6;5;
42410;PMS5003;28056;51.112;0.984;2022-08-19T04:31:15;7;5;
42410;PMS5003;28056;51.112;0.984;2022-08-19T04:33:45;5;5;
42410;PMS5003;28056;51.112;0.984;2022-08-19T04:36:16;4;4;
42410;PMS5003;28056;51.112;0.984;2022-08-19T04:38:44;3;3;
42410;PMS5003;28056;51.112;0.984;2022-08-19T04:41:12;6;4;
42410;PMS5003;28056;51.112;0.984;2022-08-19T04:43:39;2;2;
42410;PMS5003;28056;51.112;0.984;2022-08-19T04:46:08;6;5;
42410;PMS5003;28056;51.112;0.984;2022-08-19T04:48:38;4;4;
42410;PMS5003;28056;51.112;0.984;2022-08-19T04:51:07;4;4;
42410;PMS5003;28056;51.112;0.984;2022-08-19T04:53:37;4;4;
42410;PMS5003;28056;51.112;0.984;2022-08-19T04:56:07;3;3;
42410;PMS5003;28056;51.112;0.984;2022-08-19T04:58:36;5;3;
42410;PMS5003;28056;51.112;0.984;2022-08-19T05:01:05;3;3;
42410;PMS5003;28056;51.112;0.984;2022-08-19T05:03:32;3;3;
42410;PMS5003;28056;51.112;0.984;2022-08-19T05:06:03;3;3;
42410;PMS5003;28056;51.112;0.984;2022-08-19T05:08:31;5;5;
42410;PMS5003;28056;51.112;0.984;2022-08-19T05:11:00;4;4;
42410;PMS5003;28056;51.112;0.984;2022-08-19T05:13:28;4;3;
42410;PMS5003;28056;51.112;0.984;2022-08-19T05:15:55;5;3;
42410;PMS5003;28056;51.112;0.984;2022-08-19T05:18:24;3;3;
42410;PMS5003;28056;51.112;0.984;2022-08-19T05:20:51;2;2;
42410;PMS5003;28056;51.112;0.984;2022-08-19T05:23:19;3;3;
42410;PMS5003;28056;51.112;0.984;2022-08-19T05:25:46;2;2;
42410;PMS5003;28056;51.112;0.984;2022-08-19T05:28:14;3;3;
42410;PMS5003;28056;51.112;0.984;2022-08-19T05:30:41;4;2;
42410;PMS5003;28056;51.112;0.984;2022-08-19T05:33:09;2;2;
42410;PMS5003;28056;51.112;0.984;2022-08-19T05:35:37;2;2;
42410;PMS5003;28056;51.112;0.984;2022-08-19T05:38:05;2;2;
42410;PMS5003;28056;51.112;0.984;2022-08-19T05:40:33;3;2;
42410;PMS5003;28056;51.112;0.984;2022-08-19T05:43:01;4;2;
42410;PMS5003;28056;51.112;0.984;2022-08-19T05:45:28;3;3;
42410;PMS5003;28056;51.112;0.984;2022-08-19T05:47:56;3;3;
42410;PMS5003;28056;51.112;0.984;2022-08-19T05:50:24;4;4;
42410;PMS5003;28056;51.112;0.984;2022-08-19T05:52:52;5;3;
42410;PMS5003;28056;51.112;0.984;2022-08-19T05:55:19;6;6;
42410;PMS5003;28056;51.112;0.984;2022-08-19T05:57:47;6;6;
42410;PMS5003;28056;51.112;0.984;2022-08-19T06:00:15;3;3;
42410;PMS5003;28056;51.112;0.984;2022-08-19T06:02:42;4;3;
42410;PMS5003;28056;51.112;0.984;2022-08-19T06:05:10;4;4;
42410;PMS5003;28056;51.112;0.984;2022-08-19T06:07:38;6;5;
42410;PMS5003;28056;51.112;0.984;2022-08-19T06:10:08;3;3;
42410;PMS5003;28056;51.112;0.984;2022-08-19T06:12:37;4;4;
42410;PMS5003;28056;51.112;0.984;2022-08-19T06:15:06;3;3;
42410;PMS5003;28056;51.112;0.984;2022-08-19T06:17:35;7;7;
42410;PMS5003;28056;51.112;0.984;2022-08-19T06:20:03;4;4;
42410;PMS5003;28056;51.112;0.984;2022-08-19T06:22:35;8;6;
42410;PMS5003;28056;51.112;0.984;2022-08-19T06:25:05;6;5;
42410;PMS5003;28056;51.112;0.984;2022-08-19T06:27:34;5;3;
42410;PMS5003;28056;51.112;0.984;2022-08-19T06:30:03;4;4;
42410;PMS5003;28056;51.112;0.984;2022-08-19T06:32:31;3;3;
42410;PMS5003;28056;51.112;0.984;2022-08-19T06:34:58;4;4;
42410;PMS5003;28056;51.112;0.984;2022-08-19T06:37:26;8;5;
42410;PMS5003;28056;51.112;0.984;2022-08-19T06:39:53;5;4;
42410;PMS5003;28056;51.112;0.984;2022-08-19T06:42:21;5;4;
42410;PMS5003;28056;51.112;0.984;2022-08-19T06:44:48;4;4;
42410;PMS5003;28056;51.112;0.984;2022-08-19T06:47:18;5;3;
42410;PMS5003;28056;51.112;0.984;2022-08-19T06:49:47;2;2;
42410;PMS5003;28056;51.112;0.984;2022-08-19T06:52:15;2;2;
42410;PMS5003;28056;51.112;0.984;2022-08-19T06:54:43;3;2;
42410;PMS5003;28056;51.112;0.984;2022-08-19T06:57:10;4;4;
42410;PMS5003;28056;51.112;0.984;2022-08-19T06:59:38;3;3;
42410;PMS5003;28056;51.112;0.984;2022-08-19T07:02:05;2;2;
42410;PMS5003;28056;51.112;0.984;2022-08-19T07:04:35;2;2;
42410;PMS5003;28056;51.112;0.984;2022-08-19T07:07:04;2;2;
42410;PMS5003;28056;51.112;0.984;2022-08-19T07:09:34;3;3;
42410;PMS5003;28056;51.112;0.984;2022-08-19T07:12:03;3;3;
42410;PMS5003;28056;51.112;0.984;2022-08-19T07:14:32;2;2;
42410;PMS5003;28056;51.112;0.984;2022-08-19T07:17:00;4;2;
42410;PMS5003;28056;51.112;0.984;2022-08-19T07:19:28;5;3;
42410;PMS5003;28056;51.112;0.984;2022-08-19T07:21:56;4;4;
42410;PMS5003;28056;51.112;0.984;2022-08-19T07:24:24;4;3;
42410;PMS5003;28056;51.112;0.984;2022-08-19T07:26:52;4;3;
42410;PMS5003;28056;51.112;0.984;2022-08-19T07:29:22;4;4;
42410;PMS5003;28056;51.112;0.984;2022-08-19T07:31:49;3;3;
42410;PMS5003;28056;51.112;0.984;2022-08-19T07:34:18;4;4;
42410;PMS5003;28056;51.112;0.984;2022-08-19T07:36:45;4;2;
42410;PMS5003;28056;51.112;0.984;2022-08-19T07:39:14;3;3;
42410;PMS5003;28056;51.112;0.984;2022-08-19T07:41:43;4;4;
42410;PMS5003;28056;51.112;0.984;2022-08-19T07:44:12;3;3;
42410;PMS5003;28056;51.112;0.984;2022-08-19T07:46:42;3;3;
42410;PMS5003;28056;51.112;0.984;2022-08-19T07:49:11;4;4;
42410;PMS5003;28056;51.112;0.984;2022-08-19T07:51:40;4;4;
42410;PMS5003;28056;51.112;0.984;2022-08-19T07:54:08;5;5;
42410;PMS5003;28056;51.112;0.984;2022-08-19T07:56:36;4;4;
42410;PMS5003;28056;51.112;0.984;2022-08-19T07:59:03;3;3;
42410;PMS5003;28056;51.112;0.984;2022-08-19T08:01:31;3;3;
42410;PMS5003;28056;51.112;0.984;2022-08-19T08:03:58;5;4;
42410;PMS5003;28056;51.112;0.984;2022-08-19T08:06:26;4;4;
42410;PMS5003;28056;51.112;0.984;2022-08-19T08:08:53;3;3;
42410;PMS5003;28056;51.112;0.984;2022-08-19T08:11:21;3;2;
42410;PMS5003;28056;51.112;0.984;2022-08-19T08:13:48;3;3;
42410;PMS5003;28056;51.112;0.984;2022-08-19T08:16:16;4;4;
42410;PMS5003;28056;51.112;0.984;2022-08-19T08:18:44;3;3;
42410;PMS5003;28056;51.112;0.984;2022-08-19T08:21:11;4;4;
42410;PMS5003;28056;51.112;0.984;2022-08-19T08:23:39;3;3;
42410;PMS5003;28056;51.112;0.984;2022-08-19T08:26:06;3;3;
42410;PMS5003;28056;51.112;0.984;2022-08-19T08:28:34;3;3;
42410;PMS5003;28056;51.112;0.984;2022-08-19T08:31:01;4;4;
42410;PMS5003;28056;51.112;0.984;2022-08-19T08:33:29;3;3;
42410;PMS5003;28056;51.112;0.984;2022-08-19T08:35:56;3;3;
42410;PMS5003;28056;51.112;0.984;2022-08-19T08:38:24;3;3;
42410;PMS5003;28056;51.112;0.984;2022-08-19T08:40:52;4;4;
42410;PMS5003;28056;51.112;0.984;2022-08-19T08:43:27;2;2;
42410;PMS5003;28056;51.112;0.984;2022-08-19T08:45:59;4;3;
42410;PMS5003;28056;51.112;0.984;2022-08-19T08:48:32;4;4;
42410;PMS5003;28056;51.112;0.984;2022-08-19T08:51:07;3;3;
42410;PMS5003;28056;51.112;0.984;2022-08-19T08:53:38;3;3;
42410;PMS5003;28056;51.112;0.984;2022-08-19T08:56:09;5;3;
42410;PMS5003;28056;51.112;0.984;2022-08-19T08:58:39;6;6;
42410;PMS5003;28056;51.112;0.984;2022-08-19T09:01:13;3;1;
42410;PMS5003;28056;51.112;0.984;2022-08-19T09:03:40;4;2;
42410;PMS5003;28056;51.112;0.984;2022-08-19T09:06:11;3;1;
42410;PMS5003;28056;51.112;0.984;2022-08-19T09:08:45;2;2;
42410;PMS5003;28056;51.112;0.984;2022-08-19T09:11:19;1;1;
42410;PMS5003;28056;51.112;0.984;2022-08-19T09:14:01;1;1;
42410;PMS5003;28056;51.112;0.984;2022-08-19T09:16:38;0;0;
42410;PMS5003;28056;51.112;0.984;2022-08-19T09:19:07;1;1;
42410;PMS5003;28056;51.112;0.984;2022-08-19T09:21:35;2;1;
42410;PMS5003;28056;51.112;0.984;2022-08-19T09:24:02;1;1;
42410;PMS5003;28056;51.112;0.984;2022-08-19T09:26:31;1;1;
42410;PMS5003;28056;51.112;0.984;2022-08-19T09:28:59;0;0;
42410;PMS5003;28056;51.112;0.984;2022-08-19T09:31:27;1;1;
42410;PMS5003;28056;51.112;0.984;2022-08-19T09:33:56;0;0;
42410;PMS5003;28056;51.112;0.984;2022-08-19T09:36:24;1;1;
42410;PMS5003;28056;51.112;0.984;2022-08-19T09:38:53;0;0;
42410;PMS5003;28056;51.112;0.984;2022-08-19T09:41:22;1;1;
42410;PMS5003;28056;51.112;0.984;2022-08-19T09:43:51;0;0;
42410;PMS5003;28056;51.112;0.984;2022-08-19T09:46:21;1;0;
42410;PMS5003;28056;51.112;0.984;2022-08-19T09:48:50;3;3;
42410;PMS5003;28056;51.112;0.984;2022-08-19T09:51:19;4;2;
42410;PMS5003;28056;51.112;0.984;2022-08-19T09:53:50;2;1;
42410;PMS5003;28056;51.112;0.984;2022-08-19T09:56:20;8;5;
42410;PMS5003;28056;51.112;0.984;2022-08-19T09:58:49;10;5;
42410;PMS5003;28056;51.112;0.984;2022-08-19T10:01:17;2;2;
42410;PMS5003;28056;51.112;0.984;2022-08-19T10:03:47;0;0;
42410;PMS5003;28056;51.112;0.984;2022-08-19T10:06:16;5;3;
42410;PMS5003;28056;51.112;0.984;2022-08-19T10:08:45;3;3;
42410;PMS5003;28056;51.112;0.984;2022-08-19T10:11:13;4;3;
42410;PMS5003;28056;51.112;0.984;2022-08-19T10:13:42;5;3;
42410;PMS5003;28056;51.112;0.984;2022-08-19T10:16:13;5;3;
42410;PMS5003;28056;51.112;0.984;2022-08-19T10:18:41;2;2;
42410;PMS5003;28056;51.112;0.984;2022-08-19T10:21:11;2;2;
42410;PMS5003;28056;51.112;0.984;2022-08-19T10:23:41;1;1;
42410;PMS5003;28056;51.112;0.984;2022-08-19T10:26:11;1;1;
42410;PMS5003;28056;51.112;0.984;2022-08-19T10:28:41;2;2;
42410;PMS5003;28056;51.112;0.984;2022-08-19T10:31:11;3;3;
42410;PMS5003;28056;51.112;0.984;2022-08-19T10:33:39;2;2;
42410;PMS5003;28056;51.112;0.984;2022-08-19T10:36:08;2;2;
42410;PMS5003;28056;51.112;0.984;2022-08-19T10:38:38;2;2;
42410;PMS5003;28056;51.112;0.984;2022-08-19T10:41:06;3;3;
42410;PMS5003;28056;51.112;0.984;2022-08-19T10:43:35;1;1;
42410;PMS5003;28056;51.112;0.984;2022-08-19T10:46:02;2;2;
42410;PMS5003;28056;51.112;0.984;2022-08-19T10:48:30;4;2;
42410;PMS5003;28056;51.112;0.984;2022-08-19T10:50:58;4;3;
42410;PMS5003;28056;51.112;0.984;2022-08-19T10:53:25;2;2;
42410;PMS5003;28056;51.112;0.984;2022-08-19T10:55:53;1;1;
42410;PMS5003;28056;51.112;0.984;2022-08-19T10:58:21;3;3;
42410;PMS5003;28056;51.112;0.984;2022-08-19T11:00:51;3;3;
42410;PMS5003;28056;51.112;0.984;2022-08-19T11:03:20;4;3;
42410;PMS5003;28056;51.112;0.984;2022-08-19T11:05:56;4;4;
42410;PMS5003;28056;51.112;0.984;2022-08-19T11:08:25;4;4;
42410;PMS5003;28056;51.112;0.984;2022-08-19T11:10:52;4;4;
42410;PMS5003;28056;51.112;0.984;2022-08-19T11:13:21;5;5;
42410;PMS5003;28056;51.112;0.984;2022-08-19T11:15:56;8;5;
42410;PMS5003;28056;51.112;0.984;2022-08-19T11:18:25;6;4;
42410;PMS5003;28056;51.112;0.984;2022-08-19T11:20:52;4;4;
42410;PMS5003;28056;51.112;0.984;2022-08-19T11:23:19;5;5;
42410;PMS5003;28056;51.112;0.984;2022-08-19T11:25:47;5;5;
42410;PMS5003;28056;51.112;0.984;2022-08-19T11:28:15;6;5;
42410;PMS5003;28056;51.112;0.984;2022-08-19T11:30:43;9;7;
42410;PMS5003;28056;51.112;0.984;2022-08-19T11:33:10;7;5;
42410;PMS5003;28056;51.112;0.984;2022-08-19T11:35:38;5;5;
42410;PMS5003;28056;51.112;0.984;2022-08-19T11:38:06;6;6;
42410;PMS5003;28056;51.112;0.984;2022-08-19T11:40:33;5;5;
42410;PMS5003;28056;51.112;0.984;2022-08-19T11:43:01;8;5;
42410;PMS5003;28056;51.112;0.984;2022-08-19T11:45:28;8;7;
42410;PMS5003;28056;51.112;0.984;2022-08-19T11:47:56;9;6;
42410;PMS5003;28056;51.112;0.984;2022-08-19T11:50:24;9;7;
42410;PMS5003;28056;51.112;0.984;2022-08-19T11:52:53;10;7;
42410;PMS5003;28056;51.112;0.984;2022-08-19T11:55:22;6;6;
42410;PMS5003;28056;51.112;0.984;2022-08-19T11:57:49;8;8;
42410;PMS5003;28056;51.112;0.984;2022-08-19T12:00:17;6;6;
42410;PMS5003;28056;51.112;0.984;2022-08-19T12:02:46;5;5;
42410;PMS5003;28056;51.112;0.984;2022-08-19T12:05:13;4;4;
42410;PMS5003;28056;51.112;0.984;2022-08-19T12:07:40;7;6;
42410;PMS5003;28056;51.112;0.984;2022-08-19T12:10:08;5;5;
42410;PMS5003;28056;51.112;0.984;2022-08-19T12:12:36;7;5;
42410;PMS5003;28056;51.112;0.984;2022-08-19T12:15:04;6;6;
42410;PMS5003;28056;51.112;0.984;2022-08-19T12:17:32;6;6;
42410;PMS5003;28056;51.112;0.984;2022-08-19T12:20:00;8;5;
42410;PMS5003;28056;51.112;0.984;2022-08-19T12:22:27;8;8;
42410;PMS5003;28056;51.112;0.984;2022-08-19T12:24:55;10;6;
42410;PMS5003;28056;51.112;0.984;2022-08-19T12:27:22;6;5;
42410;PMS5003;28056;51.112;0.984;2022-08-19T12:29:50;7;7;
42410;PMS5003;28056;51.112;0.984;2022-08-19T12:32:17;6;5;
42410;PMS5003;28056;51.112;0.984;2022-08-19T12:34:44;5;5;
42410;PMS5003;28056;51.112;0.984;2022-08-19T12:37:12;6;6;
42410;PMS5003;28056;51.112;0.984;2022-08-19T12:39:40;6;6;
42410;PMS5003;28056;51.112;0.984;2022-08-19T12:42:09;6;5;
42410;PMS5003;28056;51.112;0.984;2022-08-19T12:44:37;6;4;
42410;PMS5003;28056;51.112;0.984;2022-08-19T12:47:07;5;4;
42410;PMS5003;28056;51.112;0.984;2022-08-19T12:49:37;6;5;
42410;PMS5003;28056;51.112;0.984;2022-08-19T12:52:07;6;3;
42410;PMS5003;28056;51.112;0.984;2022-08-19T12:54:35;5;3;
42410;PMS5003;28056;51.112;0.984;2022-08-19T12:57:04;4;3;
42410;PMS5003;28056;51.112;0.984;2022-08-19T12:59:33;5;5;
42410;PMS5003;28056;51.112;0.984;2022-08-19T13:02:03;5;5;
42410;PMS5003;28056;51.112;0.984;2022-08-19T13:04:34;7;7;
42410;PMS5003;28056;51.112;0.984;2022-08-19T13:07:05;7;5;
42410;PMS5003;28056;51.112;0.984;2022-08-19T13:09:34;5;5;
42410;PMS5003;28056;51.112;0.984;2022-08-19T13:12:02;7;5;
42410;PMS5003;28056;51.112;0.984;2022-08-19T13:14:30;5;5;
42410;PMS5003;28056;51.112;0.984;2022-08-19T13:16:58;3;3;
42410;PMS5003;28056;51.112;0.984;2022-08-19T13:19:26;7;5;
42410;PMS5003;28056;51.112;0.984;2022-08-19T13:21:53;4;4;
42410;PMS5003;28056;51.112;0.984;2022-08-19T13:24:21;5;4;
42410;PMS5003;28056;51.112;0.984;2022-08-19T13:26:48;5;4;
42410;PMS5003;28056;51.112;0.984;2022-08-19T13:29:16;3;3;
42410;PMS5003;28056;51.112;0.984;2022-08-19T13:31:43;6;5;
42410;PMS5003;28056;51.112;0.984;2022-08-19T13:34:10;3;3;
42410;PMS5003;28056;51.112;0.984;2022-08-19T13:36:39;2;2;
42410;PMS5003;28056;51.112;0.984;2022-08-19T13:39:07;5;3;
42410;PMS5003;28056;51.112;0.984;2022-08-19T13:41:35;2;1;
42410;PMS5003;28056;51.112;0.984;2022-08-19T13:44:03;2;2;
42410;PMS5003;28056;51.112;0.984;2022-08-19T13:46:30;0;0;
42410;PMS5003;28056;51.112;0.984;2022-08-19T13:48:58;1;1;
42410;PMS5003;28056;51.112;0.984;2022-08-19T13:51:26;1;1;
42410;PMS5003;28056;51.112;0.984;2022-08-19T13:53:54;2;2;
42410;PMS5003;28056;51.112;0.984;2022-08-19T13:56:21;3;2;
42410;PMS5003;28056;51.112;0.984;2022-08-19T13:58:48;1;1;
42410;PMS5003;28056;51.112;0.984;2022-08-19T14:01:18;1;1;
42410;PMS5003;28056;51.112;0.984;2022-08-19T14:03:50;4;2;
42410;PMS5003;28056;51.112;0.984;2022-08-19T14:06:18;3;1;
42410;PMS5003;28056;51.112;0.984;2022-08-19T14:08:46;4;4;
42410;PMS5003;28056;51.112;0.984;2022-08-19T14:11:13;3;3;
42410;PMS5003;28056;51.112;0.984;2022-08-19T14:13:41;5;4;
42410;PMS5003;28056;51.112;0.984;2022-08-19T14:16:09;6;4;
42410;PMS5003;28056;51.112;0.984;2022-08-19T14:18:38;6;6;
42410;PMS5003;28056;51.112;0.984;2022-08-19T14:21:06;7;7;
42410;PMS5003;28056;51.112;0.984;2022-08-19T14:23:41;8;8;
42410;PMS5003;28056;51.112;0.984;2022-08-19T14:26:11;6;6;
42410;PMS5003;28056;51.112;0.984;2022-08-19T14:28:41;7;5;
42410;PMS5003;28056;51.112;0.984;2022-08-19T14:31:09;5;5;
42410;PMS5003;28056;51.112;0.984;2022-08-19T14:33:38;4;4;
42410;PMS5003;28056;51.112;0.984;2022-08-19T14:36:05;5;5;
42410;PMS5003;28056;51.112;0.984;2022-08-19T14:38:33;6;6;
42410;PMS5003;28056;51.112;0.984;2022-08-19T14:41:10;4;4;
42410;PMS5003;28056;51.112;0.984;2022-08-19T14:43:39;5;5;
42410;PMS5003;28056;51.112;0.984;2022-08-19T14:46:06;3;3;
42410;PMS5003;28056;51.112;0.984;2022-08-19T14:48:34;4;3;
42410;PMS5003;28056;51.112;0.984;2022-08-19T14:51:01;4;4;
42410;PMS5003;28056;51.112;0.984;2022-08-19T14:53:29;5;3;
42410;PMS5003;28056;51.112;0.984;2022-08-19T14:55:56;5;4;
42410;PMS5003;28056;51.112;0.984;2022-08-19T14:58:24;3;3;
42410;PMS5003;28056;51.112;0.984;2022-08-19T15:00:51;5;5;
42410;PMS5003;28056;51.112;0.984;2022-08-19T15:03:19;4;3;
42410;PMS5003;28056;51.112;0.984;2022-08-19T15:05:47;5;5;
42410;PMS5003;28056;51.112;0.984;2022-08-19T15:08:14;5;3;
42410;PMS5003;28056;51.112;0.984;2022-08-19T15:10:41;5;3;
42410;PMS5003;28056;51.112;0.984;2022-08-19T15:13:09;4;4;
42410;PMS5003;28056;51.112;0.984;2022-08-19T15:15:36;4;4;
42410;PMS5003;28056;51.112;0.984;2022-08-19T15:18:04;4;4;
42410;PMS5003;28056;51.112;0.984;2022-08-19T15:20:31;4;4;
42410;PMS5003;28056;51.112;0.984;2022-08-19T15:22:59;4;4;
42410;PMS5003;28056;51.112;0.984;2022-08-19T15:25:27;3;2;
42410;PMS5003;28056;51.112;0.984;2022-08-19T15:27:55;6;5;
42410;PMS5003;28056;51.112;0.984;2022-08-19T15:30:24;6;6;
42410;PMS5003;28056;51.112;0.984;2022-08-19T15:32:54;3;3;
42410;PMS5003;28056;51.112;0.984;2022-08-19T15:35:22;4;4;
42410;PMS5003;28056;51.112;0.984;2022-08-19T15:37:50;2;2;
42410;PMS5003;28056;51.112;0.984;2022-08-19T15:40:19;4;3;
42410;PMS5003;28056;51.112;0.984;2022-08-19T15:42:48;3;2;
42410;PMS5003;28056;51.112;0.984;2022-08-19T15:45:16;2;2;
42410;PMS5003;28056;51.112;0.984;2022-08-19T15:47:45;3;3;
42410;PMS5003;28056;51.112;0.984;2022-08-19T15:50:14;3;2;
42410;PMS5003;28056;51.112;0.984;2022-08-19T15:52:44;2;2;
42410;PMS5003;28056;51.112;0.984;2022-08-19T15:55:14;5;2;
42410;PMS5003;28056;51.112;0.984;2022-08-19T15:57:42;1;1;
42410;PMS5003;28056;51.112;0.984;2022-08-19T16:00:09;4;3;
42410;PMS5003;28056;51.112;0.984;2022-08-19T16:02:36;1;1;
42410;PMS5003;28056;51.112;0.984;2022-08-19T16:05:05;4;4;
42410;PMS5003;28056;51.112;0.984;2022-08-19T16:07:35;4;4;
42410;PMS5003;28056;51.112;0.984;2022-08-19T16:10:03;4;4;
42410;PMS5003;28056;51.112;0.984;2022-08-19T16:12:32;5;3;
42410;PMS5003;28056;51.112;0.984;2022-08-19T16:14:59;3;3;
42410;PMS5003;28056;51.112;0.984;2022-08-19T16:17:27;3;3;
42410;PMS5003;28056;51.112;0.984;2022-08-19T16:19:55;5;5;
42410;PMS5003;28056;51.112;0.984;2022-08-19T16:22:27;7;7;
42410;PMS5003;28056;51.112;0.984;2022-08-19T16:24:55;7;4;
42410;PMS5003;28056;51.112;0.984;2022-08-19T16:27:22;6;3;
42410;PMS5003;28056;51.112;0.984;2022-08-19T16:29:50;4;4;
42410;PMS5003;28056;51.112;0.984;2022-08-19T16:32:18;5;5;
42410;PMS5003;28056;51.112;0.984;2022-08-19T16:34:46;4;4;
42410;PMS5003;28056;51.112;0.984;2022-08-19T16:37:14;3;3;
42410;PMS5003;28056;51.112;0.984;2022-08-19T16:39:42;5;5;
42410;PMS5003;28056;51.112;0.984;2022-08-19T16:42:11;5;5;
42410;PMS5003;28056;51.112;0.984;2022-08-19T16:44:39;3;3;
42410;PMS5003;28056;51.112;0.984;2022-08-19T16:47:08;5;5;
42410;PMS5003;28056;51.112;0.984;2022-08-19T16:49:37;4;4;
42410;PMS5003;28056;51.112;0.984;2022-08-19T16:52:05;5;4;
42410;PMS5003;28056;51.112;0.984;2022-08-19T16:54:34;9;6;
42410;PMS5003;28056;51.112;0.984;2022-08-19T16:57:02;5;5;
42410;PMS5003;28056;51.112;0.984;2022-08-19T16:59:29;6;4;
42410;PMS5003;28056;51.112;0.984;2022-08-19T17:01:57;3;3;
42410;PMS5003;28056;51.112;0.984;2022-08-19T17:04:26;4;4;